createdAt,value
2019-01-26T00:00:49.241Z,99.99
2019-01-26T00:01:59.218Z,99.99
2019-01-26T00:03:09.197Z,99.99
2019-01-26T00:04:19.225Z,99.99
2019-01-26T00:05:29.211Z,99.99
2019-01-26T00:06:39.193Z,99.99
2019-01-26T00:07:48.841Z,99.99
2019-01-26T00:08:58.832Z,99.99
2019-01-26T00:10:08.910Z,99.99
2019-01-26T00:11:18.886Z,99.99
2019-01-26T00:12:28.895Z,99.99
2019-01-26T00:13:38.872Z,99.99
2019-01-26T00:14:48.868Z,99.99
2019-01-26T00:15:58.848Z,99.99
2019-01-26T00:17:08.832Z,99.99
2019-01-26T00:18:20.233Z,99.99
2019-01-26T00:19:30.212Z,99.99
2019-01-26T00:20:40.191Z,99.99
2019-01-26T00:21:50.166Z,99.99
2019-01-26T00:23:00.143Z,99.99
2019-01-26T00:24:09.879Z,99.99
2019-01-26T00:25:19.853Z,99.99
2019-01-26T00:26:29.831Z,99.99
2019-01-26T00:27:44.033Z,99.99
2019-01-26T00:28:54.019Z,99.99
2019-01-26T00:30:04.000Z,99.99
2019-01-26T00:31:14.015Z,99.99
2019-01-26T00:32:23.740Z,99.99
2019-01-26T00:33:33.768Z,99.99
2019-01-26T00:34:48.436Z,99.99
2019-01-26T00:35:58.417Z,99.99
2019-01-26T00:37:08.398Z,99.99
2019-01-26T00:38:18.379Z,99.99
2019-01-26T00:39:42.996Z,99.99
2019-01-26T00:40:52.979Z,99.99
2019-01-26T00:42:02.955Z,99.99
2019-01-26T00:43:12.931Z,99.99
2019-01-26T00:44:22.949Z,99.99
2019-01-26T00:45:32.974Z,99.99
2019-01-26T00:46:42.950Z,99.99
2019-01-26T00:47:52.923Z,99.99
2019-01-26T00:49:02.900Z,99.99
2019-01-26T00:50:12.874Z,99.99
2019-01-26T00:51:22.903Z,99.99
2019-01-26T00:52:32.881Z,99.99
2019-01-26T00:53:42.859Z,99.99
2019-01-26T00:54:52.840Z,99.99
2019-01-26T00:56:02.820Z,99.99
2019-01-26T00:57:12.901Z,99.99
2019-01-26T00:58:25.950Z,99.99
2019-01-26T00:59:35.931Z,99.99
2019-01-26T01:00:45.913Z,99.99
2019-01-26T01:01:55.894Z,99.99
2019-01-26T01:03:05.932Z,99.99
2019-01-26T01:04:15.591Z,99.99
2019-01-26T01:05:25.575Z,99.99
2019-01-26T01:06:35.556Z,99.99
2019-01-26T01:07:45.643Z,99.99
2019-01-26T01:08:55.981Z,99.99
2019-01-26T01:10:05.958Z,99.99
2019-01-26T01:11:15.936Z,99.99
2019-01-26T01:12:25.917Z,99.99
2019-01-26T01:13:35.901Z,99.99
2019-01-26T01:14:46.911Z,99.99
2019-01-26T01:15:56.890Z,99.99
2019-01-26T01:17:06.870Z,99.99
2019-01-26T01:18:16.846Z,99.99
2019-01-26T01:19:26.823Z,99.99
2019-01-26T01:20:36.856Z,99.99
2019-01-26T01:21:46.934Z,99.99
2019-01-26T01:22:57.141Z,99.99
2019-01-26T01:24:07.122Z,99.99
2019-01-26T01:25:17.140Z,99.99
2019-01-26T01:26:26.944Z,99.99
2019-01-26T01:27:36.924Z,99.99
2019-01-26T01:28:46.935Z,99.99
2019-01-26T01:29:56.911Z,99.99
2019-01-26T01:31:06.894Z,99.99
2019-01-26T01:32:17.021Z,99.99
2019-01-26T01:33:27.000Z,99.99
2019-01-26T01:34:36.977Z,99.99
2019-01-26T01:35:47.110Z,99.99
2019-01-26T01:36:57.087Z,99.99
2019-01-26T01:38:06.610Z,99.99
2019-01-26T01:39:16.627Z,99.99
2019-01-26T01:40:26.741Z,99.99
2019-01-26T01:41:36.725Z,99.99
2019-01-26T01:42:46.707Z,99.99
2019-01-26T01:43:57.814Z,99.99
2019-01-26T01:45:07.793Z,99.99
2019-01-26T01:46:17.774Z,99.99
2019-01-26T01:47:27.754Z,99.99
2019-01-26T01:48:37.772Z,99.99
2019-01-26T01:49:47.900Z,99.99
2019-01-26T01:50:57.884Z,99.99
2019-01-26T01:52:07.871Z,99.99
2019-01-26T01:53:17.864Z,99.99
2019-01-26T01:54:27.841Z,99.99
2019-01-26T01:55:37.687Z,99.99
2019-01-26T01:56:47.665Z,99.99
2019-01-26T01:57:57.640Z,99.99
2019-01-26T01:59:07.634Z,99.99
2019-01-26T02:00:17.611Z,99.99
2019-01-26T02:01:27.590Z,99.99
2019-01-26T02:02:37.575Z,99.99
2019-01-26T02:03:47.553Z,99.99
2019-01-26T02:04:57.528Z,99.99
2019-01-26T02:06:07.507Z,99.99
2019-01-26T02:07:17.535Z,99.99
2019-01-26T02:08:27.512Z,99.99
2019-01-26T02:09:37.493Z,99.99
2019-01-26T02:10:47.482Z,99.99
2019-01-26T02:11:57.466Z,99.99
2019-01-26T02:13:07.551Z,99.99
2019-01-26T02:14:17.534Z,99.99
2019-01-26T02:15:27.517Z,99.99
2019-01-26T02:16:37.492Z,99.99
2019-01-26T02:17:53.014Z,99.99
2019-01-26T02:19:03.094Z,99.99
2019-01-26T02:20:27.713Z,99.99
2019-01-26T02:21:37.694Z,99.99
2019-01-26T02:22:47.674Z,99.99
2019-01-26T02:23:57.661Z,99.99
2019-01-26T02:25:07.694Z,99.99
2019-01-26T02:26:17.676Z,99.99
2019-01-26T02:27:27.653Z,99.99
2019-01-26T02:28:37.673Z,99.99
2019-01-26T02:29:47.752Z,99.99
2019-01-26T02:30:57.728Z,99.99
2019-01-26T02:32:07.714Z,99.99
2019-01-26T02:33:17.703Z,99.99
2019-01-26T02:34:27.701Z,99.99
2019-01-26T02:35:37.732Z,99.99
2019-01-26T02:36:47.782Z,99.99
2019-01-26T02:37:57.767Z,99.99
2019-01-26T02:39:07.746Z,99.99
2019-01-26T02:40:17.728Z,99.99
2019-01-26T02:41:27.813Z,99.99
2019-01-26T02:42:37.809Z,99.99
2019-01-26T02:43:47.789Z,99.99
2019-01-26T02:44:57.764Z,99.99
2019-01-26T02:46:07.776Z,99.99
2019-01-26T02:47:17.874Z,99.99
2019-01-26T02:48:27.848Z,99.99
2019-01-26T02:49:37.836Z,99.99
2019-01-26T02:50:47.815Z,99.99
2019-01-26T02:51:57.793Z,99.99
2019-01-26T02:53:07.929Z,99.99
2019-01-26T02:54:17.905Z,99.99
2019-01-26T02:55:42.522Z,99.99
2019-01-26T02:56:52.497Z,99.99
2019-01-26T02:58:02.509Z,99.99
2019-01-26T02:59:12.605Z,99.99
2019-01-26T03:00:22.598Z,99.99
2019-01-26T03:01:32.650Z,99.99
2019-01-26T03:02:42.634Z,99.99
2019-01-26T03:03:53.466Z,99.99
2019-01-26T03:05:03.460Z,99.99
2019-01-26T03:06:14.574Z,99.99
2019-01-26T03:07:24.559Z,99.99
2019-01-26T03:08:34.298Z,99.99
2019-01-26T03:09:44.393Z,99.99
2019-01-26T03:10:54.377Z,99.99
2019-01-26T03:12:04.359Z,99.99
2019-01-26T03:13:14.347Z,99.99
2019-01-26T03:14:24.078Z,99.99
2019-01-26T03:15:34.237Z,99.99
2019-01-26T03:16:44.548Z,99.99
2019-01-26T03:17:54.537Z,99.99
2019-01-26T03:19:04.535Z,99.99
2019-01-26T03:20:14.511Z,99.99
2019-01-26T03:21:24.548Z,99.99
2019-01-26T03:22:34.525Z,99.99
2019-01-26T03:23:44.502Z,99.99
2019-01-26T03:24:54.492Z,99.99
2019-01-26T03:26:04.485Z,99.99
2019-01-26T03:27:14.575Z,99.99
2019-01-26T03:28:24.561Z,99.99
2019-01-26T03:29:34.543Z,99.99
2019-01-26T03:30:44.530Z,99.99
2019-01-26T03:31:54.538Z,99.99
2019-01-26T03:33:04.665Z,99.99
2019-01-26T03:34:14.664Z,99.99
2019-01-26T03:35:24.651Z,99.99
2019-01-26T03:36:34.630Z,99.99
2019-01-26T03:37:44.623Z,99.99
2019-01-26T03:38:57.055Z,99.99
2019-01-26T03:40:07.053Z,99.99
2019-01-26T03:41:17.038Z,99.99
2019-01-26T03:42:27.023Z,99.99
2019-01-26T03:43:37.010Z,99.99
2019-01-26T03:45:01.670Z,99.99
2019-01-26T03:46:11.651Z,99.99
2019-01-26T03:47:21.628Z,99.99
2019-01-26T03:48:31.619Z,99.99
2019-01-26T03:49:41.615Z,99.99
2019-01-26T03:50:51.701Z,99.99
2019-01-26T03:52:01.681Z,99.99
2019-01-26T03:53:11.661Z,99.99
2019-01-26T03:54:21.667Z,99.99
2019-01-26T03:55:31.648Z,99.99
2019-01-26T03:56:41.780Z,99.99
2019-01-26T03:57:51.776Z,99.99
2019-01-26T03:59:01.759Z,99.99
2019-01-26T04:00:11.754Z,99.99
2019-01-26T04:01:21.760Z,99.99
2019-01-26T04:02:31.849Z,99.99
2019-01-26T04:03:41.832Z,99.99
2019-01-26T04:04:51.819Z,99.99
2019-01-26T04:06:01.814Z,99.99
2019-01-26T04:07:11.796Z,99.99
2019-01-26T04:08:21.879Z,99.99
2019-01-26T04:09:31.859Z,99.99
2019-01-26T04:10:41.859Z,99.99
2019-01-26T04:11:51.872Z,99.99
2019-01-26T04:13:01.865Z,99.99
2019-01-26T04:14:11.964Z,99.99
2019-01-26T04:15:21.962Z,99.99
2019-01-26T04:16:31.688Z,99.99
2019-01-26T04:17:41.685Z,99.99
2019-01-26T04:18:51.413Z,99.99
2019-01-26T04:20:01.417Z,99.99
2019-01-26T04:21:11.180Z,99.99
2019-01-26T04:22:20.921Z,99.99
2019-01-26T04:23:30.647Z,99.99
2019-01-26T04:24:40.638Z,99.99
2019-01-26T04:25:50.734Z,99.99
2019-01-26T04:27:00.727Z,99.99
2019-01-26T04:28:10.708Z,99.99
2019-01-26T04:29:20.692Z,99.99
2019-01-26T04:30:30.675Z,99.99
2019-01-26T04:31:40.768Z,99.99
2019-01-26T04:32:50.772Z,99.99
2019-01-26T04:34:00.775Z,99.99
2019-01-26T04:35:10.775Z,99.99
2019-01-26T04:36:20.769Z,99.99
2019-01-26T04:37:30.752Z,99.99
2019-01-26T04:38:40.756Z,99.99
2019-01-26T04:39:50.517Z,99.99
2019-01-26T04:41:00.504Z,99.99
2019-01-26T04:42:10.486Z,99.99
2019-01-26T04:43:20.569Z,99.99
2019-01-26T04:44:30.568Z,99.99
2019-01-26T04:45:40.545Z,99.99
2019-01-26T04:46:50.530Z,99.99
2019-01-26T04:48:00.518Z,99.99
2019-01-26T04:49:10.657Z,99.99
2019-01-26T04:50:20.653Z,99.99
2019-01-26T04:51:30.635Z,99.99
2019-01-26T04:52:40.621Z,99.99
2019-01-26T04:53:50.617Z,99.99
2019-01-26T04:55:00.655Z,99.99
2019-01-26T04:56:10.681Z,99.99
2019-01-26T04:57:20.411Z,99.99
2019-01-26T04:58:30.393Z,99.99
2019-01-26T04:59:40.369Z,99.99
2019-01-26T05:00:50.400Z,99.99
2019-01-26T05:02:00.396Z,99.99
2019-01-26T05:03:10.377Z,99.99
2019-01-26T05:04:20.376Z,99.99
2019-01-26T05:05:30.356Z,99.99
2019-01-26T05:06:40.379Z,99.99
2019-01-26T05:07:50.375Z,99.99
2019-01-26T05:09:00.357Z,99.99
2019-01-26T05:10:10.355Z,99.99
2019-01-26T05:11:20.345Z,99.99
2019-01-26T05:12:30.379Z,99.99
2019-01-26T05:13:40.367Z,99.99
2019-01-26T05:14:50.357Z,99.99
2019-01-26T05:16:00.340Z,99.99
2019-01-26T05:17:10.071Z,99.99
2019-01-26T05:18:20.100Z,99.99
2019-01-26T05:19:29.833Z,99.99
2019-01-26T05:20:39.816Z,99.99
2019-01-26T05:21:49.549Z,99.99
2019-01-26T05:22:59.290Z,99.99
2019-01-26T05:24:09.327Z,99.99
2019-01-26T05:25:19.311Z,99.99
2019-01-26T05:26:43.933Z,99.99
2019-01-26T05:27:53.909Z,99.99
2019-01-26T05:29:03.891Z,99.99
2019-01-26T05:30:13.976Z,99.99
2019-01-26T05:31:23.956Z,99.99
2019-01-26T05:32:33.961Z,99.99
2019-01-26T05:33:43.694Z,99.99
2019-01-26T05:34:53.767Z,99.99
2019-01-26T05:36:03.746Z,99.99
2019-01-26T05:37:13.740Z,99.99
2019-01-26T05:38:23.720Z,99.99
2019-01-26T05:39:33.706Z,99.99
2019-01-26T05:40:43.733Z,99.99
2019-01-26T05:41:53.715Z,99.99
2019-01-26T05:43:03.702Z,99.99
2019-01-26T05:44:13.682Z,99.99
2019-01-26T05:45:23.387Z,99.99
2019-01-26T05:46:33.519Z,99.99
2019-01-26T05:47:49.977Z,99.99
2019-01-26T05:48:59.958Z,99.99
2019-01-26T05:50:09.935Z,99.99
2019-01-26T05:51:19.922Z,99.99
2019-01-26T05:52:30.007Z,99.99
2019-01-26T05:53:39.994Z,99.99
2019-01-26T05:54:49.972Z,99.99
2019-01-26T05:55:59.958Z,99.99
2019-01-26T05:57:09.942Z,99.99
2019-01-26T05:58:19.967Z,99.99
2019-01-26T05:59:29.945Z,99.99
2019-01-26T06:00:39.938Z,99.99
2019-01-26T06:01:49.930Z,99.99
2019-01-26T06:02:59.904Z,99.99
2019-01-26T06:04:09.681Z,99.99
2019-01-26T06:05:19.662Z,99.99
2019-01-26T06:06:29.644Z,99.99
2019-01-26T06:07:39.625Z,99.99
2019-01-26T06:08:49.396Z,99.99
2019-01-26T06:09:59.422Z,99.99
2019-01-26T06:11:09.406Z,99.99
2019-01-26T06:12:19.390Z,99.99
2019-01-26T06:13:29.371Z,99.99
2019-01-26T06:14:39.359Z,99.99
2019-01-26T06:15:49.399Z,99.99
2019-01-26T06:16:59.393Z,99.99
2019-01-26T06:18:09.373Z,99.99
2019-01-26T06:19:19.986Z,99.99
2019-01-26T06:20:29.964Z,99.99
2019-01-26T06:21:39.992Z,99.99
2019-01-26T06:22:49.968Z,99.99
2019-01-26T06:23:59.953Z,99.99
2019-01-26T06:25:09.944Z,99.99
2019-01-26T06:26:19.932Z,99.99
2019-01-26T06:27:29.955Z,99.99
2019-01-26T06:28:39.932Z,99.99
2019-01-26T06:29:49.914Z,99.99
2019-01-26T06:30:59.898Z,99.99
2019-01-26T06:32:09.877Z,99.99
2019-01-26T06:33:19.858Z,99.99
2019-01-26T06:34:29.843Z,99.99
2019-01-26T06:35:39.825Z,99.99
2019-01-26T06:36:49.818Z,99.99
2019-01-26T06:37:59.793Z,99.99
2019-01-26T06:39:09.918Z,99.99
2019-01-26T06:40:19.896Z,99.99
2019-01-26T06:41:29.873Z,99.99
2019-01-26T06:42:39.855Z,99.99
2019-01-26T06:43:49.836Z,99.99
2019-01-26T06:44:59.864Z,99.99
2019-01-26T06:46:09.841Z,99.99
2019-01-26T06:47:19.819Z,99.99
2019-01-26T06:48:29.795Z,99.99
2019-01-26T06:49:39.771Z,99.99
2019-01-26T06:50:49.848Z,99.99
2019-01-26T06:51:59.823Z,99.99
2019-01-26T06:53:09.801Z,99.99
2019-01-26T06:54:19.777Z,99.99
2019-01-26T06:55:29.755Z,99.99
2019-01-26T06:56:39.838Z,99.99
2019-01-26T06:57:49.812Z,99.99
2019-01-26T06:58:59.792Z,99.99
2019-01-26T07:00:09.777Z,99.99
2019-01-26T07:01:19.759Z,99.99
2019-01-26T07:02:29.837Z,99.99
2019-01-26T07:03:39.822Z,99.99
2019-01-26T07:04:51.339Z,99.99
2019-01-26T07:06:01.316Z,99.99
2019-01-26T07:07:11.302Z,99.99
2019-01-26T07:08:21.337Z,99.99
2019-01-26T07:09:31.322Z,99.99
2019-01-26T07:10:41.306Z,99.99
2019-01-26T07:11:51.290Z,99.99
2019-01-26T07:13:01.273Z,99.99
2019-01-26T07:14:11.358Z,99.99
2019-01-26T07:15:21.012Z,99.99
2019-01-26T07:16:30.990Z,99.99
2019-01-26T07:17:40.969Z,99.99
2019-01-26T07:18:50.952Z,99.99
2019-01-26T07:20:01.074Z,99.99
2019-01-26T07:21:11.057Z,99.99
2019-01-26T07:22:21.040Z,99.99
2019-01-26T07:23:31.022Z,99.99
2019-01-26T07:24:41.003Z,99.99
2019-01-26T07:25:51.028Z,99.99
2019-01-26T07:27:00.751Z,99.99
2019-01-26T07:28:10.728Z,99.99
2019-01-26T07:29:20.704Z,99.99
2019-01-26T07:30:30.686Z,99.99
2019-01-26T07:31:40.721Z,99.99
2019-01-26T07:32:50.702Z,99.99
2019-01-26T07:34:00.691Z,99.99
2019-01-26T07:35:10.420Z,99.99
2019-01-26T07:36:20.395Z,99.99
2019-01-26T07:37:30.424Z,99.99
2019-01-26T07:38:40.400Z,99.99
2019-01-26T07:39:50.377Z,99.99
2019-01-26T07:41:00.357Z,99.99
2019-01-26T07:42:10.336Z,99.99
2019-01-26T07:43:20.377Z,99.99
2019-01-26T07:44:30.356Z,99.99
2019-01-26T07:45:40.332Z,99.99
2019-01-26T07:46:50.310Z,99.99
2019-01-26T07:48:00.291Z,99.99
2019-01-26T07:49:11.768Z,99.99
2019-01-26T07:50:21.742Z,99.99
2019-01-26T07:51:31.728Z,99.99
2019-01-26T07:52:41.707Z,99.99
2019-01-26T07:53:51.687Z,99.99
2019-01-26T07:55:01.713Z,99.99
2019-01-26T07:56:11.689Z,99.99
2019-01-26T07:57:21.682Z,99.99
2019-01-26T07:58:31.658Z,99.99
2019-01-26T07:59:41.636Z,99.99
2019-01-26T08:00:51.715Z,99.99
2019-01-26T08:02:01.723Z,99.99
2019-01-26T08:03:11.706Z,99.99
2019-01-26T08:04:21.688Z,99.99
2019-01-26T08:05:31.664Z,99.99
2019-01-26T08:06:41.640Z,99.99
2019-01-26T08:07:51.619Z,99.99
2019-01-26T08:09:01.602Z,99.99
2019-01-26T08:10:11.579Z,99.99
2019-01-26T08:11:21.556Z,99.99
2019-01-26T08:12:31.529Z,99.99
2019-01-26T08:13:41.511Z,99.99
2019-01-26T08:14:51.494Z,99.99
2019-01-26T08:16:01.468Z,99.99
2019-01-26T08:17:11.455Z,99.99
2019-01-26T08:18:26.234Z,99.99
2019-01-26T08:19:36.217Z,99.99
2019-01-26T08:20:47.729Z,99.99
2019-01-26T08:21:57.718Z,99.99
2019-01-26T08:23:07.710Z,99.99
2019-01-26T08:24:17.797Z,99.99
2019-01-26T08:25:27.782Z,99.99
2019-01-26T08:26:37.774Z,99.99
2019-01-26T08:28:02.393Z,99.99
2019-01-26T08:29:12.372Z,99.99
2019-01-26T08:30:22.398Z,99.99
2019-01-26T08:31:32.385Z,99.99
2019-01-26T08:32:42.406Z,99.99
2019-01-26T08:33:52.392Z,99.99
2019-01-26T08:35:02.373Z,99.99
2019-01-26T08:36:12.104Z,99.99
2019-01-26T08:37:22.081Z,99.99
2019-01-26T08:38:32.058Z,99.99
2019-01-26T08:39:42.036Z,99.99
2019-01-26T08:40:51.790Z,99.99
2019-01-26T08:42:01.765Z,99.99
2019-01-26T08:43:11.494Z,99.99
2019-01-26T08:44:21.474Z,99.99
2019-01-26T08:45:31.454Z,99.99
2019-01-26T08:46:41.530Z,99.99
2019-01-26T08:47:52.495Z,99.99
2019-01-26T08:49:02.474Z,99.99
2019-01-26T08:50:14.092Z,99.99
2019-01-26T08:51:24.073Z,99.99
2019-01-26T08:52:34.103Z,99.99
2019-01-26T08:53:44.084Z,99.99
2019-01-26T08:54:54.065Z,99.99
2019-01-26T08:56:04.042Z,99.99
2019-01-26T08:57:14.020Z,99.99
2019-01-26T08:58:23.993Z,99.99
2019-01-26T08:59:33.968Z,99.99
2019-01-26T09:00:43.945Z,99.99
2019-01-26T09:01:53.924Z,99.99
2019-01-26T09:03:18.538Z,99.99
2019-01-26T09:04:28.614Z,99.99
2019-01-26T09:05:38.592Z,99.99
2019-01-26T09:06:48.583Z,99.99
2019-01-26T09:07:58.562Z,99.99
2019-01-26T09:09:08.638Z,99.99
2019-01-26T09:10:18.619Z,99.99
2019-01-26T09:11:28.602Z,99.99
2019-01-26T09:12:38.581Z,99.99
2019-01-26T09:13:48.564Z,99.99
2019-01-26T09:14:58.640Z,99.99
2019-01-26T09:16:08.623Z,99.99
2019-01-26T09:17:18.632Z,99.99
2019-01-26T09:18:28.614Z,99.99
2019-01-26T09:19:44.216Z,99.99
2019-01-26T09:20:54.322Z,99.99
2019-01-26T09:22:04.300Z,99.99
2019-01-26T09:23:14.281Z,99.99
2019-01-26T09:24:24.260Z,99.99
2019-01-26T09:25:35.864Z,99.99
2019-01-26T09:26:45.840Z,99.99
2019-01-26T09:27:55.819Z,99.99
2019-01-26T09:29:05.804Z,99.99
2019-01-26T09:30:15.787Z,99.99
2019-01-26T09:31:25.779Z,99.99
2019-01-26T09:32:35.762Z,99.99
2019-01-26T09:33:45.740Z,99.99
2019-01-26T09:34:55.718Z,99.99
2019-01-26T09:36:05.803Z,99.99
2019-01-26T09:37:15.793Z,99.99
2019-01-26T09:38:25.821Z,99.99
2019-01-26T09:39:35.798Z,99.99
2019-01-26T09:40:47.267Z,99.99
2019-01-26T09:41:57.286Z,99.99
2019-01-26T09:43:07.265Z,99.99
2019-01-26T09:44:17.250Z,99.99
2019-01-26T09:45:27.233Z,99.99
2019-01-26T09:46:37.213Z,99.99
2019-01-26T09:47:47.193Z,99.99
2019-01-26T09:48:57.168Z,99.99
2019-01-26T09:50:07.146Z,99.99
2019-01-26T09:51:17.122Z,99.99
2019-01-26T09:52:27.105Z,99.99
2019-01-26T09:53:37.087Z,99.99
2019-01-26T09:54:47.064Z,99.99
2019-01-26T09:55:57.166Z,99.99
2019-01-26T09:57:07.143Z,99.99
2019-01-26T09:58:17.121Z,99.99
2019-01-26T09:59:27.709Z,99.99
2019-01-26T10:00:37.690Z,99.99
2019-01-26T10:01:47.765Z,99.99
2019-01-26T10:02:57.499Z,99.99
2019-01-26T10:04:07.515Z,99.99
2019-01-26T10:05:17.495Z,99.99
2019-01-26T10:06:27.473Z,99.99
2019-01-26T10:07:37.552Z,99.99
2019-01-26T10:08:47.533Z,99.99
2019-01-26T10:09:57.512Z,99.99
2019-01-26T10:11:07.822Z,99.99
2019-01-26T10:12:17.804Z,99.99
2019-01-26T10:13:27.833Z,99.99
2019-01-26T10:14:37.816Z,99.99
2019-01-26T10:15:47.796Z,99.99
2019-01-26T10:16:57.827Z,99.99
2019-01-26T10:18:07.812Z,99.99
2019-01-26T10:19:17.894Z,99.99
2019-01-26T10:20:27.874Z,99.99
2019-01-26T10:21:37.851Z,99.99
2019-01-26T10:22:47.833Z,99.99
2019-01-26T10:23:57.824Z,99.99
2019-01-26T10:25:07.912Z,99.99
2019-01-26T10:26:17.893Z,99.99
2019-01-26T10:27:27.877Z,99.99
2019-01-26T10:28:37.853Z,99.99
2019-01-26T10:29:47.831Z,99.99
2019-01-26T10:30:57.813Z,99.99
2019-01-26T10:32:07.795Z,99.99
2019-01-26T10:33:17.786Z,99.99
2019-01-26T10:34:27.775Z,99.99
2019-01-26T10:35:37.757Z,99.99
2019-01-26T10:36:47.836Z,99.99
2019-01-26T10:37:57.822Z,99.99
2019-01-26T10:39:07.806Z,99.99
2019-01-26T10:40:17.788Z,99.99
2019-01-26T10:41:27.766Z,99.99
2019-01-26T10:42:37.845Z,99.99
2019-01-26T10:43:47.823Z,99.99
2019-01-26T10:44:57.808Z,99.99
2019-01-26T10:46:07.862Z,99.99
2019-01-26T10:47:17.840Z,99.99
2019-01-26T10:48:27.923Z,99.99
2019-01-26T10:49:37.914Z,99.99
2019-01-26T10:50:47.894Z,99.99
2019-01-26T10:51:57.875Z,99.99
2019-01-26T10:53:07.860Z,99.99
2019-01-26T10:54:18.183Z,99.99
2019-01-26T10:55:28.166Z,99.99
2019-01-26T10:56:38.150Z,99.99
2019-01-26T10:57:48.126Z,99.99
2019-01-26T10:58:58.103Z,99.99
2019-01-26T11:00:08.188Z,99.99
2019-01-26T11:01:18.175Z,99.99
2019-01-26T11:02:28.154Z,99.99
2019-01-26T11:03:38.137Z,99.99
2019-01-26T11:04:48.114Z,99.99
2019-01-26T11:05:58.141Z,99.99
2019-01-26T11:07:08.119Z,99.99
2019-01-26T11:08:18.777Z,99.99
2019-01-26T11:09:28.829Z,99.99
2019-01-26T11:10:38.811Z,99.99
2019-01-26T11:11:48.893Z,99.99
2019-01-26T11:12:58.872Z,99.99
2019-01-26T11:14:08.851Z,99.99
2019-01-26T11:15:18.829Z,99.99
2019-01-26T11:16:28.821Z,99.88
2019-01-26T11:17:38.801Z,99.88
2019-01-26T11:18:49.385Z,99.99
2019-01-26T11:19:59.360Z,99.98
2019-01-26T11:21:09.340Z,99.99
2019-01-26T11:22:19.316Z,99.99
2019-01-26T11:23:29.406Z,99.99
2019-01-26T11:24:39.388Z,99.99
2019-01-26T11:25:49.372Z,99.99
2019-01-26T11:27:00.320Z,99.99
2019-01-26T11:28:10.362Z,99.79
2019-01-26T11:29:20.345Z,99.51
2019-01-26T11:30:30.326Z,99.51
2019-01-26T11:31:39.984Z,98.57
2019-01-26T11:32:49.966Z,98.8
2019-01-26T11:34:00.556Z,98.52
2019-01-26T11:35:10.643Z,98.14
2019-01-26T11:36:20.651Z,98.71
2019-01-26T11:37:30.636Z,98.14
2019-01-26T11:38:40.623Z,98.05
2019-01-26T11:39:50.605Z,97.77
2019-01-26T11:41:00.687Z,97.58
2019-01-26T11:42:10.342Z,97.48
2019-01-26T11:43:20.347Z,97.29
2019-01-26T11:44:30.330Z,97.2
2019-01-26T11:45:40.310Z,96.44
2019-01-26T11:46:50.301Z,96.16
2019-01-26T11:48:00.288Z,97.01
2019-01-26T11:49:15.019Z,96.44
2019-01-26T11:50:25.192Z,96.35
2019-01-26T11:51:34.849Z,96.25
2019-01-26T11:52:44.934Z,96.63
2019-01-26T11:53:54.914Z,96.54
2019-01-26T11:55:04.892Z,96.54
2019-01-26T11:56:14.872Z,96.82
2019-01-26T11:57:24.850Z,96.82
2019-01-26T11:58:34.826Z,96.63
2019-01-26T11:59:44.810Z,96.73
2019-01-26T12:01:01.359Z,97.2
2019-01-26T12:02:11.337Z,96.82
2019-01-26T12:03:21.314Z,97.1
2019-01-26T12:04:31.401Z,97.29
2019-01-26T12:05:41.380Z,97.34
2019-01-26T12:06:51.370Z,97.48
2019-01-26T12:08:01.351Z,97.48
2019-01-26T12:09:11.328Z,97.77
2019-01-26T12:10:21.306Z,97.81
2019-01-26T12:11:31.287Z,97.86
2019-01-26T12:12:41.265Z,98.1
2019-01-26T12:13:51.247Z,98.38
2019-01-26T12:15:00.980Z,98.8
2019-01-26T12:16:10.966Z,99.08
2019-01-26T12:17:20.694Z,98.66
2019-01-26T12:18:30.676Z,98.75
2019-01-26T12:19:40.657Z,98.9
2019-01-26T12:20:50.646Z,98.66
2019-01-26T12:22:00.643Z,98.57
2019-01-26T12:23:10.622Z,98.61
2019-01-26T12:24:21.578Z,98.47
2019-01-26T12:25:31.562Z,98.52
2019-01-26T12:26:41.541Z,98.38
2019-01-26T12:27:51.271Z,98.75
2019-01-26T12:29:01.263Z,98.38
2019-01-26T12:30:11.248Z,97.96
2019-01-26T12:31:21.230Z,97.81
2019-01-26T12:32:32.531Z,98.47
2019-01-26T12:33:42.598Z,97.91
2019-01-26T12:34:52.588Z,97.91
2019-01-26T12:36:02.565Z,97.53
2019-01-26T12:37:12.552Z,97.91
2019-01-26T12:38:22.532Z,97.81
2019-01-26T12:39:32.514Z,97.91
2019-01-26T12:40:42.501Z,97.43
2019-01-26T12:41:52.485Z,97.53
2019-01-26T12:43:02.464Z,98
2019-01-26T12:44:12.456Z,98
2019-01-26T12:45:22.437Z,97.72
2019-01-26T12:46:32.416Z,97.62
2019-01-26T12:47:42.402Z,97.34
2019-01-26T12:48:52.403Z,97.72
2019-01-26T12:50:02.425Z,97.72
2019-01-26T12:51:12.418Z,98.1
2019-01-26T12:52:22.403Z,98.38
2019-01-26T12:53:32.382Z,97.81
2019-01-26T12:54:42.446Z,97.81
2019-01-26T12:55:52.427Z,97.91
2019-01-26T12:57:02.506Z,97.81
2019-01-26T12:58:12.489Z,97.91
2019-01-26T12:59:22.474Z,97.81
2019-01-26T13:00:32.459Z,98.28
2019-01-26T13:01:42.438Z,97.81
2019-01-26T13:02:52.524Z,97.72
2019-01-26T13:04:02.515Z,98.1
2019-01-26T13:05:12.499Z,98
2019-01-26T13:06:22.482Z,97.53
2019-01-26T13:07:32.469Z,97.91
2019-01-26T13:08:42.550Z,97.05
2019-01-26T13:09:52.528Z,97.05
2019-01-26T13:11:02.509Z,97.62
2019-01-26T13:12:12.488Z,97.62
2019-01-26T13:13:22.467Z,97.15
2019-01-26T13:14:32.449Z,97.34
2019-01-26T13:15:42.428Z,97.53
2019-01-26T13:16:52.409Z,97.81
2019-01-26T13:18:02.626Z,97.91
2019-01-26T13:19:12.634Z,97.53
2019-01-26T13:20:23.488Z,97.72
2019-01-26T13:21:33.467Z,97.34
2019-01-26T13:22:43.450Z,97.43
2019-01-26T13:23:53.427Z,97.34
2019-01-26T13:25:03.417Z,97.72
2019-01-26T13:26:13.404Z,97.43
2019-01-26T13:27:23.385Z,97.72
2019-01-26T13:28:33.365Z,97.53
2019-01-26T13:29:57.984Z,97.72
2019-01-26T13:31:07.967Z,97.62
2019-01-26T13:32:18.044Z,97.43
2019-01-26T13:33:27.769Z,97.81
2019-01-26T13:34:37.748Z,98.38
2019-01-26T13:35:47.758Z,98.19
2019-01-26T13:36:57.736Z,98.19
2019-01-26T13:38:07.714Z,97.72
2019-01-26T13:39:17.694Z,97.53
2019-01-26T13:40:28.039Z,97.91
2019-01-26T13:41:38.021Z,97.81
2019-01-26T13:42:48.002Z,97.43
2019-01-26T13:43:58.003Z,97.53
2019-01-26T13:45:08.014Z,97.91
2019-01-26T13:46:18.026Z,97.53
2019-01-26T13:47:28.005Z,97.91
2019-01-26T13:48:43.273Z,97.91
2019-01-26T13:50:07.890Z,97.72
2019-01-26T13:51:17.871Z,98.38
2019-01-26T13:52:27.872Z,98.75
2019-01-26T13:53:37.849Z,98.85
2019-01-26T13:54:47.824Z,98.75
2019-01-26T13:55:57.804Z,98.75
2019-01-26T13:57:07.784Z,98.94
2019-01-26T13:58:17.762Z,98.94
2019-01-26T13:59:27.844Z,98.66
2019-01-26T14:00:37.823Z,98.85
2019-01-26T14:01:47.802Z,99.13
2019-01-26T14:02:57.782Z,98.85
2019-01-26T14:04:07.765Z,99.13
2019-01-26T14:05:17.808Z,99.22
2019-01-26T14:06:27.789Z,99.41
2019-01-26T14:07:37.773Z,99.32
2019-01-26T14:08:47.798Z,99.51
2019-01-26T14:09:57.775Z,98.94
2019-01-26T14:11:07.819Z,99.32
2019-01-26T14:12:17.798Z,99.99
2019-01-26T14:13:27.776Z,99.88
2019-01-26T14:14:37.755Z,99.99
2019-01-26T14:15:47.734Z,99.99
2019-01-26T14:16:57.767Z,99.99
2019-01-26T14:18:07.745Z,99.99
2019-01-26T14:19:17.723Z,99.99
2019-01-26T14:20:27.705Z,99.99
2019-01-26T14:21:37.701Z,99.99
2019-01-26T14:22:47.799Z,99.99
2019-01-26T14:23:57.798Z,99.99
2019-01-26T14:25:07.780Z,99.99
2019-01-26T14:26:17.761Z,99.99
2019-01-26T14:27:27.737Z,99.99
2019-01-26T14:28:37.763Z,99.99
2019-01-26T14:29:47.754Z,99.99
2019-01-26T14:30:57.749Z,99.99
2019-01-26T14:32:07.729Z,99.99
2019-01-26T14:33:17.717Z,99.99
2019-01-26T14:34:27.807Z,99.99
2019-01-26T14:35:37.789Z,99.99
2019-01-26T14:36:47.771Z,99.99
2019-01-26T14:37:57.493Z,99.99
2019-01-26T14:39:07.471Z,99.99
2019-01-26T14:40:17.495Z,99.99
2019-01-26T14:41:27.476Z,99.99
2019-01-26T14:42:37.453Z,99.99
2019-01-26T14:43:47.436Z,99.99
2019-01-26T14:44:57.422Z,99.99
2019-01-26T14:46:07.504Z,99.99
2019-01-26T14:47:17.484Z,99.99
2019-01-26T14:48:27.472Z,99.99
2019-01-26T14:49:37.541Z,99.99
2019-01-26T14:50:47.672Z,99.99
2019-01-26T14:51:57.754Z,99.99
2019-01-26T14:53:07.738Z,99.99
2019-01-26T14:55:42.371Z,99.99
2019-01-26T14:56:52.353Z,99.99
2019-01-26T14:58:02.475Z,99.99
2019-01-26T14:59:12.456Z,99.99
2019-01-26T15:00:22.433Z,99.99
2019-01-26T15:01:32.417Z,99.99
2019-01-26T15:02:42.497Z,99.99
2019-01-26T15:03:52.477Z,99.99
2019-01-26T15:05:02.455Z,99.99
2019-01-26T15:06:12.436Z,99.99
2019-01-26T15:07:22.418Z,99.99